createdAt,value
2023-01-10T00:00:46.078Z,1.12
2023-01-10T00:01:46.075Z,1.10
2023-01-10T00:02:46.115Z,1.08
2023-01-10T00:03:46.089Z,1.10
2023-01-10T00:04:46.140Z,1.11
2023-01-10T00:05:46.127Z,1.11
2023-01-10T00:06:46.151Z,1.11
2023-01-10T00:07:46.132Z,1.11
2023-01-10T00:08:46.138Z,1.12
2023-01-10T00:09:46.144Z,1.09
2023-01-10T00:10:46.153Z,1.14
2023-01-10T00:11:46.163Z,1.11
2023-01-10T00:12:46.182Z,1.10
2023-01-10T00:13:46.189Z,1.10
2023-01-10T00:14:46.202Z,1.10
2023-01-10T00:15:46.255Z,1.13
2023-01-10T00:16:46.216Z,1.09
2023-01-10T00:17:46.230Z,1.09
2023-01-10T00:18:46.233Z,1.10
2023-01-10T00:19:46.243Z,1.11
2023-01-10T00:20:46.273Z,1.08
2023-01-10T00:21:46.270Z,1.08
2023-01-10T00:22:46.278Z,1.08
2023-01-10T00:23:46.287Z,1.10
2023-01-10T00:24:46.306Z,1.09
2023-01-10T00:25:46.369Z,1.12
2023-01-10T00:26:46.391Z,1.08
2023-01-10T00:27:46.360Z,1.07
2023-01-10T00:28:46.371Z,1.08
2023-01-10T00:29:46.360Z,1.08
2023-01-10T00:30:46.370Z,1.07
2023-01-10T00:31:46.378Z,1.08
2023-01-10T00:32:46.384Z,1.09
2023-01-10T00:33:46.381Z,1.11
2023-01-10T00:34:46.406Z,1.05
2023-01-10T00:35:46.487Z,1.09
2023-01-10T00:36:46.418Z,1.10
2023-01-10T00:37:46.443Z,1.10
2023-01-10T00:38:46.443Z,1.07
2023-01-10T00:39:46.487Z,1.10
2023-01-10T00:40:46.485Z,1.08
2023-01-10T00:41:46.538Z,1.10
2023-01-10T00:42:46.505Z,1.05
2023-01-10T00:43:46.498Z,1.07
2023-01-10T00:44:46.517Z,1.07
2023-01-10T00:45:46.522Z,1.07
2023-01-10T00:46:46.544Z,1.08
2023-01-10T00:47:46.568Z,1.08
2023-01-10T00:48:46.565Z,1.07
2023-01-10T00:49:46.617Z,1.08
2023-01-10T00:50:46.594Z,1.07
2023-01-10T00:51:46.606Z,1.06
2023-01-10T00:52:46.634Z,1.05
2023-01-10T00:53:46.632Z,1.06
2023-01-10T00:54:46.647Z,1.07
2023-01-10T00:55:46.667Z,1.05
2023-01-10T00:56:46.683Z,1.06
2023-01-10T00:57:46.706Z,1.06
2023-01-10T00:58:46.725Z,1.06
2023-01-10T00:59:46.724Z,1.09
2023-01-10T01:00:46.792Z,1.03
2023-01-10T01:01:46.858Z,1.07
2023-01-10T01:02:46.829Z,1.06
2023-01-10T01:03:46.764Z,1.07
2023-01-10T01:04:46.791Z,1.04
2023-01-10T01:05:46.806Z,1.05
2023-01-10T01:06:46.828Z,1.05
2023-01-10T01:07:46.847Z,1.06
2023-01-10T01:08:46.863Z,1.06
2023-01-10T01:09:46.854Z,1.06
2023-01-10T01:10:46.875Z,1.06
2023-01-10T01:11:46.928Z,1.06
2023-01-10T01:12:46.888Z,1.07
2023-01-10T01:13:46.922Z,1.05
2023-01-10T01:14:46.912Z,1.05
2023-01-10T01:15:46.969Z,1.06
2023-01-10T01:16:46.935Z,1.06
2023-01-10T01:17:46.978Z,1.06
2023-01-10T01:18:46.986Z,1.04
2023-01-10T01:19:46.994Z,1.07
2023-01-10T01:20:46.996Z,1.04
2023-01-10T01:21:47.013Z,1.06
2023-01-10T01:22:47.021Z,1.05
2023-01-10T01:23:47.033Z,1.04
2023-01-10T01:24:47.042Z,1.02
2023-01-10T01:25:47.062Z,1.03
2023-01-10T01:26:47.098Z,1.06
2023-01-10T01:27:47.078Z,1.05
2023-01-10T01:28:47.105Z,1.05
2023-01-10T01:29:47.090Z,1.05
2023-01-10T01:30:47.191Z,1.04
2023-01-10T01:31:47.086Z,1.03
2023-01-10T01:32:47.105Z,1.06
2023-01-10T01:33:47.129Z,1.03
2023-01-10T01:34:47.109Z,1.04
2023-01-10T01:35:47.150Z,1.03
2023-01-10T01:36:47.128Z,1.03
2023-01-10T01:37:47.142Z,1.04
2023-01-10T01:38:47.155Z,1.04
2023-01-10T01:39:47.143Z,1.04
2023-01-10T01:40:47.171Z,1.05
2023-01-10T01:41:47.160Z,1.02
2023-01-10T01:42:47.172Z,1.05
2023-01-10T01:43:47.215Z,1.03
2023-01-10T01:44:47.189Z,1.05
2023-01-10T01:45:47.196Z,1.03
2023-01-10T01:46:47.205Z,1.03
2023-01-10T01:47:47.203Z,1.02
2023-01-10T02:03:47.467Z,1.03
2023-01-10T02:55:48.292Z,1.01
2023-01-10T02:56:48.325Z,1.02
2023-01-10T02:57:48.312Z,1.02
2023-01-10T02:58:48.302Z,1.02
2023-01-10T02:59:48.324Z,1.02
2023-01-10T03:00:48.340Z,1.02
2023-01-10T03:01:48.414Z,1.00
2023-01-10T03:02:48.381Z,1.00
2023-01-10T03:03:48.388Z,1.00
2023-01-10T03:04:48.450Z,0.98
2023-01-10T03:05:48.428Z,1.02
2023-01-10T03:06:48.449Z,1.01
2023-01-10T03:07:48.459Z,1.00
2023-01-10T03:08:48.467Z,1.01
2023-01-10T03:09:48.495Z,0.99
2023-01-10T03:10:48.516Z,1.01
2023-01-10T03:11:48.537Z,1.00
2023-01-10T03:12:48.534Z,1.00
2023-01-10T03:13:48.562Z,0.98
2023-01-10T03:14:48.552Z,1.01
2023-01-10T03:15:48.648Z,1.01
2023-01-10T03:16:48.588Z,1.00
2023-01-10T03:17:48.602Z,0.99
2023-01-10T03:18:48.629Z,0.97
2023-01-10T03:19:48.638Z,1.00
2023-01-10T03:20:48.669Z,1.00
2023-01-10T03:21:48.676Z,0.99
2023-01-10T03:22:48.705Z,0.99
2023-01-10T03:23:48.695Z,1.00
2023-01-10T03:24:48.758Z,0.99
2023-01-10T03:25:48.781Z,1.00
2023-01-10T03:26:48.764Z,0.98
2023-01-10T03:27:48.768Z,1.02
2023-01-10T03:28:48.806Z,1.01
2023-01-10T03:29:48.802Z,0.97
2023-01-10T03:30:48.816Z,0.97
2023-01-10T03:31:48.840Z,1.00
2023-01-10T03:32:48.836Z,0.98
2023-01-10T03:33:48.873Z,1.01
2023-01-10T03:34:48.874Z,1.00
2023-01-10T03:35:48.895Z,1.01
2023-01-10T03:36:48.921Z,1.00
2023-01-10T03:37:48.917Z,0.97
2023-01-10T03:38:48.940Z,1.01
2023-01-10T03:39:48.944Z,0.98
2023-01-10T03:40:48.958Z,1.00
2023-01-10T03:41:48.989Z,0.99
2023-01-10T03:42:48.983Z,0.97
2023-01-10T03:43:49.006Z,0.98
2023-01-10T03:44:49.035Z,0.94
2023-01-10T03:45:49.051Z,0.98
2023-01-10T03:46:49.125Z,0.95
2023-01-10T03:47:49.072Z,0.98
2023-01-10T03:48:49.072Z,0.97
2023-01-10T03:49:49.072Z,0.97
2023-01-10T03:50:49.075Z,0.99
2023-01-10T03:51:49.113Z,0.98
2023-01-10T03:52:49.120Z,0.99
2023-01-10T03:53:49.104Z,0.97
2023-01-10T03:54:49.133Z,1.00
2023-01-10T03:55:49.127Z,0.97
2023-01-10T03:56:49.164Z,0.97
2023-01-10T03:57:49.143Z,0.97
2023-01-10T03:58:49.161Z,0.99
2023-01-10T03:59:49.182Z,0.96
2023-01-10T04:00:49.311Z,0.96
2023-01-10T04:01:49.286Z,0.98
2023-01-10T04:02:49.219Z,0.94
2023-01-10T04:03:49.346Z,0.96
2023-01-10T04:04:49.239Z,0.99
2023-01-10T04:05:49.257Z,0.96
2023-01-10T04:06:49.308Z,0.97
2023-01-10T04:07:49.310Z,0.96
2023-01-10T04:08:49.321Z,0.97
2023-01-10T04:09:49.331Z,0.96
2023-01-10T04:10:49.335Z,0.97
2023-01-10T04:11:49.338Z,0.96
2023-01-10T04:12:49.369Z,0.99
2023-01-10T04:13:49.388Z,0.96
2023-01-10T04:14:49.378Z,1.00
2023-01-10T04:15:49.411Z,0.96
2023-01-10T04:16:49.411Z,0.98
2023-01-10T04:17:49.431Z,1.00
2023-01-10T04:18:49.460Z,0.95
2023-01-10T04:19:49.466Z,1.00
2023-01-10T04:20:52.068Z,0.98
2023-01-10T04:21:49.489Z,0.98
2023-01-10T04:22:49.504Z,0.98
2023-01-10T04:23:49.524Z,0.95
2023-01-10T04:24:49.533Z,0.97
2023-01-10T04:25:49.542Z,0.95
2023-01-10T04:26:49.567Z,0.96
2023-01-10T04:27:49.587Z,0.97
2023-01-10T04:28:49.605Z,0.96
2023-01-10T04:29:49.622Z,0.95
2023-01-10T04:30:49.620Z,0.97
2023-01-10T04:31:49.706Z,0.96
2023-01-10T04:32:49.650Z,0.98
2023-01-10T04:33:49.670Z,0.96
2023-01-10T04:34:49.665Z,0.95
2023-01-10T04:35:49.691Z,0.96
2023-01-10T04:36:50.688Z,0.95
2023-01-10T04:37:49.740Z,1.00
2023-01-10T04:38:49.703Z,0.95
2023-01-10T04:39:49.732Z,0.92
2023-01-10T04:40:49.751Z,0.94
2023-01-10T04:41:49.798Z,0.96
2023-01-10T04:42:49.782Z,0.97
2023-01-10T04:43:49.773Z,0.95
2023-01-10T04:44:49.793Z,0.95
2023-01-10T04:45:49.939Z,0.96
2023-01-10T08:14:01.307Z,1.63
2023-01-10T08:14:59.828Z,1.64
2023-01-10T08:15:56.492Z,1.64
2023-01-10T08:27:59.342Z,2.04
2023-01-10T08:30:04.459Z,2.05
2023-01-10T08:31:04.515Z,2.02
2023-01-10T08:32:04.052Z,2.03
2023-01-10T08:33:02.679Z,2.03
2023-01-10T08:33:58.546Z,2.03
2023-01-10T09:19:52.294Z,1.46
2023-01-10T09:20:52.298Z,1.47
2023-01-10T09:21:52.298Z,1.39
2023-01-10T09:22:52.302Z,1.40
2023-01-10T09:23:52.331Z,1.39
2023-01-10T09:24:52.333Z,1.39
2023-01-10T09:25:52.303Z,1.36
2023-01-10T09:26:52.300Z,1.35
2023-01-10T09:27:52.337Z,1.32
2023-01-10T09:28:52.336Z,1.31
2023-01-10T09:29:52.346Z,1.26
2023-01-10T09:30:52.345Z,1.23
2023-01-10T09:31:52.360Z,1.21
2023-01-10T09:32:52.326Z,1.24
2023-01-10T09:33:52.336Z,1.20
2023-01-10T09:34:52.350Z,1.24
2023-01-10T09:35:52.344Z,1.26
2023-01-10T09:36:52.365Z,1.30
2023-01-10T09:37:52.383Z,1.33
2023-01-10T09:38:52.395Z,1.34
2023-01-10T09:39:52.381Z,1.38
2023-01-10T09:40:52.412Z,1.40
2023-01-10T09:41:52.448Z,1.35
2023-01-10T09:42:52.394Z,1.40
2023-01-10T09:43:52.403Z,1.44
2023-01-10T09:44:52.429Z,1.45
2023-01-10T09:45:52.417Z,1.40
2023-01-10T09:46:52.527Z,1.41
2023-01-10T09:47:52.432Z,1.42
2023-01-10T09:48:52.447Z,1.43
2023-01-10T09:49:52.455Z,1.41
2023-01-10T09:50:52.439Z,1.44
2023-01-10T09:51:53.249Z,1.39
2023-01-10T09:52:52.453Z,1.24
2023-01-10T09:53:53.852Z,1.24
2023-01-10T09:54:52.471Z,1.17
2023-01-10T09:55:52.453Z,1.32
2023-01-10T09:56:52.469Z,1.33
2023-01-10T09:57:52.481Z,1.18
2023-01-10T09:58:52.570Z,1.09
2023-01-10T09:59:52.529Z,1.05
2023-01-10T10:00:52.508Z,1.09
2023-01-10T10:01:52.452Z,1.10
2023-01-10T10:02:52.473Z,1.18
2023-01-10T10:03:52.536Z,1.22
2023-01-10T10:04:52.464Z,1.24
2023-01-10T10:05:55.948Z,1.22
2023-01-10T10:06:53.473Z,1.22
2023-01-10T10:07:52.483Z,1.22
2023-01-10T10:08:52.471Z,1.20
2023-01-10T10:09:52.497Z,1.18
2023-01-10T10:10:52.497Z,1.15
2023-01-10T10:11:52.472Z,1.15
2023-01-10T10:12:52.484Z,1.18
2023-01-10T10:13:52.492Z,1.13
2023-01-10T10:14:52.500Z,1.09
2023-01-10T10:15:52.541Z,1.08
2023-01-10T10:16:52.491Z,1.08
2023-01-10T10:17:52.548Z,1.07
2023-01-10T10:18:52.502Z,1.09
2023-01-10T10:19:52.524Z,1.09
2023-01-10T10:20:52.495Z,1.05
2023-01-10T10:21:52.521Z,1.05
2023-01-10T10:22:52.503Z,1.02
2023-01-10T10:23:52.541Z,1.03
2023-01-10T10:24:52.573Z,1.03
2023-01-10T10:25:52.532Z,1.03
2023-01-10T10:26:52.562Z,1.02
2023-01-10T10:27:52.542Z,1.00
2023-01-10T10:28:54.897Z,1.01
2023-01-10T10:29:52.721Z,1.02
2023-01-10T10:30:52.733Z,1.04
2023-01-10T10:31:52.777Z,1.03
2023-01-10T10:32:52.717Z,1.04
2023-01-10T10:33:52.749Z,1.04
2023-01-10T10:34:52.718Z,1.04
2023-01-10T10:35:52.757Z,1.06
2023-01-10T10:36:52.744Z,1.08
2023-01-10T10:37:52.751Z,1.07
2023-01-10T10:38:52.799Z,1.07
2023-01-10T10:39:52.759Z,1.08
2023-01-10T10:40:52.763Z,1.09
2023-01-10T10:41:52.881Z,1.11
2023-01-10T10:42:52.761Z,1.11
2023-01-10T10:43:52.929Z,1.09
2023-01-10T10:44:52.768Z,1.13
2023-01-10T10:45:52.800Z,1.15
2023-01-10T10:46:52.793Z,1.14
2023-01-10T10:47:52.791Z,1.17
2023-01-10T10:48:52.816Z,1.19
2023-01-10T10:49:52.768Z,1.18
2023-01-10T10:50:52.831Z,1.24
2023-01-10T10:51:52.941Z,1.26
2023-01-10T10:52:52.785Z,1.27
2023-01-10T10:53:52.781Z,1.27
2023-01-10T10:54:52.776Z,1.28
2023-01-10T10:55:52.783Z,1.29
2023-01-10T10:56:52.917Z,1.31
2023-01-10T10:58:00.009Z,1.31
2023-01-10T10:58:53.801Z,1.31
2023-01-10T10:59:52.964Z,1.33
2023-01-10T11:00:52.936Z,1.34
2023-01-10T11:01:52.867Z,1.39
2023-01-10T11:02:52.790Z,1.31
2023-01-10T11:03:52.779Z,1.34
2023-01-10T11:04:52.859Z,1.37
2023-01-10T11:05:52.825Z,1.43
2023-01-10T11:06:52.860Z,1.55
2023-01-10T11:07:53.097Z,1.57
2023-01-10T11:08:53.840Z,1.53
2023-01-10T11:09:52.750Z,1.60
2023-01-10T11:10:52.804Z,1.62
2023-01-10T11:11:52.732Z,1.63
2023-01-10T11:12:52.863Z,1.67
2023-01-10T11:13:52.754Z,1.68
2023-01-10T11:14:52.788Z,1.63
2023-01-10T11:15:54.698Z,1.68
2023-01-10T11:16:52.736Z,1.69
2023-01-10T11:17:52.727Z,1.68
2023-01-10T11:18:52.735Z,1.73
2023-01-10T11:19:52.741Z,1.75
2023-01-10T11:20:52.795Z,1.73
2023-01-10T11:21:52.729Z,1.73
2023-01-10T11:22:54.628Z,1.74
2023-01-10T11:23:52.762Z,1.76
2023-01-10T11:24:52.718Z,1.77
2023-01-10T11:25:52.731Z,1.83
2023-01-10T11:26:52.743Z,1.79
2023-01-10T11:27:52.795Z,1.76
2023-01-10T11:28:53.262Z,1.81
2023-01-10T11:29:52.877Z,1.81
2023-01-10T11:30:52.712Z,1.81
2023-01-10T11:31:52.800Z,1.78
2023-01-10T11:32:52.839Z,1.82
2023-01-10T11:33:53.261Z,1.79
2023-01-10T11:34:52.753Z,1.63
2023-01-10T11:35:52.697Z,1.44
2023-01-10T11:36:52.768Z,1.40
2023-01-10T11:37:52.691Z,1.37
2023-01-10T11:38:52.693Z,1.52
2023-01-10T11:39:52.770Z,1.46
2023-01-10T11:40:52.679Z,1.47
2023-01-10T11:41:52.805Z,1.29
2023-01-10T11:42:52.693Z,1.24
2023-01-10T11:43:52.708Z,1.26
2023-01-10T11:44:52.706Z,1.25
2023-01-10T11:45:52.766Z,1.09
2023-01-10T11:46:52.778Z,1.09
2023-01-10T11:47:52.727Z,1.04
2023-01-10T11:49:06.331Z,1.03
2023-01-10T11:49:53.712Z,1.03
2023-01-10T11:50:52.732Z,0.98
2023-01-10T11:51:52.741Z,1.02
2023-01-10T11:52:53.261Z,0.93
2023-01-10T11:53:52.753Z,0.91
2023-01-10T11:54:52.840Z,0.90
2023-01-10T11:55:52.764Z,0.91
2023-01-10T11:56:52.744Z,0.90
2023-01-10T11:57:52.729Z,0.96
2023-01-10T11:58:52.759Z,0.89
2023-01-10T11:59:52.807Z,0.83
2023-01-10T12:00:52.795Z,0.89
2023-01-10T12:01:52.852Z,0.83
2023-01-10T12:02:52.730Z,0.83
2023-01-10T12:03:52.758Z,0.83
2023-01-10T12:04:52.862Z,0.77
2023-01-10T12:05:52.789Z,0.75
2023-01-10T12:06:52.933Z,0.75
2023-01-10T12:07:52.773Z,0.75
2023-01-10T12:08:52.788Z,0.82
2023-01-10T12:09:52.791Z,0.75
2023-01-10T12:10:52.837Z,0.73
2023-01-10T12:11:52.836Z,0.76
2023-01-10T12:12:52.837Z,0.76
2023-01-10T12:13:52.831Z,0.67
2023-01-10T12:14:53.226Z,0.70
2023-01-10T12:15:52.841Z,0.66
2023-01-10T12:16:52.863Z,0.69
2023-01-10T12:17:53.549Z,0.71
2023-01-10T12:18:52.812Z,0.68
2023-01-10T12:19:52.840Z,0.66
2023-01-10T12:20:52.861Z,0.67
2023-01-10T12:21:52.839Z,0.67
2023-01-10T12:22:52.859Z,0.66
2023-01-10T12:23:52.852Z,0.65
2023-01-10T12:24:52.847Z,0.72
2023-01-10T12:26:07.102Z,0.65
2023-01-10T12:26:52.866Z,0.67
2023-01-10T12:27:52.874Z,0.71
2023-01-10T12:28:52.889Z,0.65
2023-01-10T12:29:52.880Z,0.75
2023-01-10T12:30:52.947Z,0.78
2023-01-10T12:31:52.895Z,0.77
2023-01-10T12:32:52.899Z,0.81
2023-01-10T12:33:52.892Z,0.83
2023-01-10T12:34:52.911Z,0.87
2023-01-10T12:35:52.892Z,0.90
2023-01-10T12:36:52.891Z,0.93
2023-01-10T12:37:52.939Z,0.94
2023-01-10T12:38:52.884Z,0.92
2023-01-10T12:39:52.910Z,0.96
2023-01-10T12:40:52.921Z,0.96
2023-01-10T12:41:52.902Z,0.99
2023-01-10T12:42:52.935Z,0.99
2023-01-10T12:43:52.941Z,1.01
2023-01-10T12:44:52.907Z,1.02
2023-01-10T12:45:52.971Z,1.03
2023-01-10T12:47:06.519Z,1.02
2023-01-10T12:47:53.925Z,1.02
2023-01-10T12:48:52.999Z,1.02
2023-01-10T12:49:52.953Z,1.03
2023-01-10T12:50:52.929Z,1.03
2023-01-10T12:51:52.942Z,1.04
2023-01-10T12:52:52.932Z,1.02
2023-01-10T12:53:52.985Z,1.03
2023-01-10T12:54:52.940Z,1.02
2023-01-10T12:55:53.032Z,1.02
2023-01-10T12:56:52.989Z,1.01
2023-01-10T12:57:52.954Z,0.99
2023-01-10T12:58:52.979Z,1.03
2023-01-10T12:59:52.974Z,0.98
2023-01-10T13:00:53.030Z,1.00
2023-01-10T13:01:53.020Z,1.03
2023-01-10T13:02:53.028Z,1.06
2023-01-10T13:03:52.991Z,1.09
2023-01-10T13:04:53.008Z,1.10
2023-01-10T13:05:53.026Z,1.15
2023-01-10T13:06:52.991Z,1.14
2023-01-10T13:07:53.006Z,1.17
2023-01-10T13:08:53.040Z,1.18
2023-01-10T13:09:53.041Z,1.12
2023-01-10T13:10:53.018Z,1.14
2023-01-10T13:11:53.052Z,1.17
2023-01-10T13:12:53.022Z,1.15
2023-01-10T13:13:53.067Z,1.12
2023-01-10T13:14:53.040Z,1.05
2023-01-10T13:15:53.173Z,1.07
2023-01-10T13:16:53.045Z,1.08
2023-01-10T13:17:53.088Z,1.10
2023-01-10T13:18:53.082Z,1.09
2023-01-10T13:19:53.066Z,1.09
2023-01-10T13:20:53.049Z,1.10
2023-01-10T13:21:53.054Z,1.11
2023-01-10T13:22:53.066Z,1.12
2023-01-10T13:23:53.069Z,1.11
2023-01-10T13:24:53.060Z,1.10
2023-01-10T13:25:53.082Z,1.10
2023-01-10T13:26:53.071Z,1.11
2023-01-10T13:27:53.064Z,1.11
2023-01-10T13:28:53.071Z,1.09
2023-01-10T13:29:53.081Z,1.11
2023-01-10T13:30:53.105Z,1.06
2023-01-10T13:31:53.079Z,1.10
2023-01-10T13:32:53.080Z,1.08
2023-01-10T13:33:53.099Z,1.10
2023-01-10T13:34:53.082Z,1.10
2023-01-10T13:35:53.079Z,1.10
2023-01-10T13:36:54.021Z,1.09
2023-01-10T14:16:53.223Z,1.12
2023-01-10T14:45:53.351Z,1.10
2023-01-10T14:46:53.313Z,1.11
2023-01-10T14:47:53.332Z,1.11
2023-01-10T14:48:53.346Z,1.11
2023-01-10T14:49:53.329Z,1.11
2023-01-10T14:50:53.325Z,1.10
2023-01-10T14:51:53.310Z,1.13
2023-01-10T14:52:53.328Z,1.12
2023-01-10T14:53:53.338Z,1.10
2023-01-10T14:54:54.573Z,1.11
2023-01-10T14:55:53.349Z,1.10
2023-01-10T14:56:53.347Z,1.10
2023-01-10T14:57:53.348Z,1.12
2023-01-10T14:58:53.365Z,1.10
2023-01-10T14:59:53.361Z,1.10
2023-01-10T15:00:53.432Z,1.09
2023-01-10T15:01:53.388Z,1.10
2023-01-10T15:02:53.407Z,1.09
2023-01-10T15:03:53.392Z,1.09
2023-01-10T15:04:53.426Z,1.09
2023-01-10T15:05:53.424Z,1.09
2023-01-10T15:06:53.399Z,1.09
2023-01-10T15:07:53.397Z,1.09
2023-01-10T15:08:53.393Z,1.09
2023-01-10T15:09:53.408Z,1.10
2023-01-10T15:10:53.394Z,1.07
2023-01-10T15:11:53.416Z,1.10
2023-01-10T15:12:53.404Z,1.10
2023-01-10T15:13:53.415Z,1.10
2023-01-10T15:14:53.462Z,1.08
2023-01-10T15:15:53.513Z,1.09
2023-01-10T15:16:53.436Z,1.10
2023-01-10T19:03:55.169Z,0.89
2023-01-10T19:05:55.285Z,0.90
2023-01-10T19:06:56.844Z,0.89
2023-01-10T19:07:55.201Z,0.87
2023-01-10T19:08:55.200Z,0.91
2023-01-10T19:09:55.229Z,0.88
2023-01-10T19:11:12.462Z,0.90
2023-01-10T19:11:56.251Z,0.90
2023-01-10T19:12:55.247Z,0.89
2023-01-10T19:13:55.275Z,0.90
2023-01-10T19:14:55.266Z,0.87
2023-01-10T19:15:55.313Z,0.87
2023-01-10T19:16:55.271Z,0.89
2023-01-10T19:17:55.285Z,0.89
2023-01-10T19:18:55.292Z,0.87
2023-01-10T19:19:55.301Z,0.89
2023-01-10T19:20:55.313Z,0.88
2023-01-10T19:21:55.323Z,0.88
2023-01-10T19:22:55.336Z,0.87
2023-01-10T19:23:55.338Z,0.89
2023-01-10T19:24:55.358Z,0.87
2023-01-10T19:25:55.367Z,0.88
2023-01-10T19:26:55.365Z,0.85
2023-01-10T19:27:55.371Z,0.90
2023-01-10T19:28:55.372Z,0.88
2023-01-10T19:29:55.397Z,0.88
2023-01-10T19:31:04.195Z,0.86
2023-01-10T19:31:56.510Z,0.86
2023-01-10T19:32:55.426Z,0.87
2023-01-10T19:33:55.439Z,0.87
2023-01-10T19:34:55.444Z,0.87
2023-01-10T19:35:55.444Z,0.90
2023-01-10T19:36:55.460Z,0.87
2023-01-10T19:37:55.460Z,0.86
2023-01-10T19:38:55.450Z,0.86
2023-01-10T19:39:55.479Z,0.88
2023-01-10T19:40:55.488Z,0.88
2023-01-10T19:41:55.495Z,0.85
2023-01-10T19:42:55.497Z,0.87
2023-01-10T19:43:55.498Z,0.87
2023-01-10T19:44:55.496Z,0.86
2023-01-10T19:45:55.569Z,0.87
2023-01-10T19:46:55.560Z,0.87
2023-01-10T19:47:55.551Z,0.86
2023-01-10T19:48:55.555Z,0.87
2023-01-10T19:49:55.574Z,0.88
2023-01-10T19:50:55.614Z,0.84
2023-01-10T19:51:55.593Z,0.84
2023-01-10T19:52:55.592Z,0.87
2023-01-10T19:53:55.617Z,0.84
2023-01-10T19:54:55.590Z,0.86
2023-01-10T19:55:55.633Z,0.85
2023-01-10T19:56:55.632Z,0.87
2023-01-10T19:57:55.642Z,0.87
2023-01-10T19:58:55.646Z,0.86
2023-01-10T19:59:55.646Z,0.84
2023-01-10T20:00:55.662Z,0.86
2023-01-10T20:01:55.811Z,0.84
2023-01-10T20:02:55.705Z,0.87
2023-01-10T20:03:55.678Z,0.86
2023-01-10T20:04:55.684Z,0.85
2023-01-10T20:05:55.691Z,0.85
2023-01-10T20:06:55.745Z,0.85
2023-01-10T20:07:55.714Z,0.85
2023-01-10T20:08:55.732Z,0.85
2023-01-10T20:09:55.761Z,0.86
2023-01-10T20:10:55.755Z,0.87
2023-01-10T20:11:55.753Z,0.85
2023-01-10T20:12:55.781Z,0.86
2023-01-10T20:13:55.767Z,0.86
2023-01-10T20:14:55.788Z,0.84
2023-01-10T20:15:55.842Z,0.85
2023-01-10T20:16:55.804Z,0.82
2023-01-10T20:17:55.834Z,0.83
2023-01-10T20:18:55.853Z,0.85
2023-01-10T20:19:55.863Z,0.86
2023-01-10T20:20:55.886Z,0.84
2023-01-10T20:21:55.882Z,0.84
2023-01-10T20:22:55.909Z,0.84
2023-01-10T20:23:55.901Z,0.84
2023-01-10T20:24:55.913Z,0.84
2023-01-10T20:25:55.947Z,0.84
2023-01-10T20:26:55.934Z,0.85
2023-01-10T20:27:55.968Z,0.83
2023-01-10T20:28:55.958Z,0.84
2023-01-10T20:29:55.986Z,0.83
2023-01-10T20:30:56.007Z,0.84
2023-01-10T20:31:56.029Z,0.84
2023-01-10T20:32:56.022Z,0.84
2023-01-10T20:33:56.060Z,0.87
2023-01-10T20:34:56.055Z,0.83
2023-01-10T20:35:56.031Z,0.85
2023-01-10T20:36:56.062Z,0.83
2023-01-10T20:37:56.081Z,0.83
2023-01-10T20:38:56.079Z,0.83
2023-01-10T20:39:56.107Z,0.83
2023-01-10T20:40:56.105Z,0.82
2023-01-10T20:41:56.125Z,0.84
2023-01-10T20:42:56.151Z,0.84
2023-01-10T20:43:56.166Z,0.84
2023-01-10T20:44:56.215Z,0.84
2023-01-10T20:45:56.192Z,0.83
2023-01-10T20:46:56.199Z,0.84
2023-01-10T20:47:56.212Z,0.82
2023-01-10T20:48:56.227Z,0.84
2023-01-10T20:49:56.210Z,0.84
2023-01-10T20:50:56.232Z,0.82
2023-01-10T20:51:56.226Z,0.83
2023-01-10T20:52:56.260Z,0.82
2023-01-10T20:53:56.240Z,0.82
2023-01-10T20:54:56.354Z,0.84
2023-01-10T20:56:00.104Z,0.82
2023-01-10T20:56:56.278Z,0.82
2023-01-10T20:57:56.312Z,0.82
2023-01-10T20:58:56.338Z,0.82
2023-01-10T20:59:56.302Z,0.83
2023-01-10T21:00:56.324Z,0.82
2023-01-10T21:01:56.355Z,0.81
2023-01-10T21:02:56.382Z,0.82
2023-01-10T21:03:56.375Z,0.82
2023-01-10T21:04:56.349Z,0.80
2023-01-10T21:05:56.380Z,0.84
2023-01-10T21:06:56.513Z,0.82
2023-01-10T21:07:56.400Z,0.81
2023-01-10T21:08:56.441Z,0.84
2023-01-10T21:09:56.420Z,0.83
2023-01-10T21:10:56.422Z,0.83
2023-01-10T21:12:07.499Z,0.81
2023-01-10T21:12:57.461Z,0.82
2023-01-10T21:13:56.476Z,0.82
2023-01-10T21:14:56.476Z,0.82
2023-01-10T21:15:56.532Z,0.81
2023-01-10T21:16:56.499Z,0.82
2023-01-10T21:17:56.503Z,0.82
2023-01-10T21:18:56.517Z,0.82
2023-01-10T21:19:56.524Z,0.82
2023-01-10T21:20:56.537Z,0.83
2023-01-10T21:21:56.539Z,0.82
2023-01-10T21:22:59.135Z,0.81
2023-01-10T21:23:56.596Z,0.84
2023-01-10T21:24:56.577Z,0.83
2023-01-10T21:25:56.591Z,0.81
2023-01-10T21:26:56.604Z,0.81
2023-01-10T21:27:56.630Z,0.81
2023-01-10T21:28:56.655Z,0.81
2023-01-10T21:29:56.652Z,0.81
2023-01-10T21:30:56.680Z,0.82
2023-01-10T21:31:56.689Z,0.80
2023-01-10T21:32:56.694Z,0.80
2023-01-10T21:33:56.710Z,0.81
2023-01-10T21:34:56.718Z,0.82
2023-01-10T21:35:56.724Z,0.80
2023-01-10T21:36:56.826Z,0.81
2023-01-10T21:37:56.752Z,0.80
2023-01-10T21:38:56.764Z,0.79
2023-01-10T21:39:56.776Z,0.80
2023-01-10T21:40:56.782Z,0.78
2023-01-10T21:41:56.815Z,0.81
2023-01-10T21:42:56.828Z,0.79
2023-01-10T21:43:56.854Z,0.80
2023-01-10T21:44:56.840Z,0.79
2023-01-10T21:45:56.838Z,0.82
2023-01-10T21:46:56.943Z,0.81
2023-01-10T21:47:56.894Z,0.79
2023-01-10T21:48:56.894Z,0.80
2023-01-10T21:49:56.904Z,0.81
2023-01-10T21:50:56.926Z,0.81
2023-01-10T21:51:56.915Z,0.77
2023-01-10T21:52:56.935Z,0.80
2023-01-10T21:53:56.976Z,0.82
2023-01-10T21:54:56.958Z,0.79
2023-01-10T21:55:56.959Z,0.77
2023-01-10T21:56:56.976Z,0.80
2023-01-10T21:57:56.979Z,0.79
2023-01-10T21:58:57.010Z,0.80
2023-01-10T21:59:57.053Z,0.81
2023-01-10T22:00:57.050Z,0.79
2023-01-10T22:01:57.029Z,0.79
2023-01-10T22:02:57.026Z,0.79
2023-01-10T22:03:57.107Z,0.78
2023-01-10T22:04:57.046Z,0.78
2023-01-10T22:05:57.052Z,0.79
2023-01-10T22:06:57.096Z,0.78
2023-01-10T22:07:57.068Z,0.79
2023-01-10T22:08:57.062Z,0.80
2023-01-10T22:09:57.082Z,0.78
2023-01-10T22:10:57.104Z,0.78
2023-01-10T22:11:57.110Z,0.77
2023-01-10T22:12:57.096Z,0.81
2023-01-10T22:13:57.122Z,0.80
2023-01-10T22:14:57.141Z,0.78
2023-01-10T22:15:57.170Z,0.78
2023-01-10T22:16:57.131Z,0.79
2023-01-10T22:17:57.146Z,0.78
2023-01-10T22:18:57.159Z,0.79
2023-01-10T22:19:57.175Z,0.76
2023-01-10T22:20:57.191Z,0.78
2023-01-10T22:21:57.201Z,0.78
2023-01-10T22:22:57.214Z,0.78
2023-01-10T22:23:57.212Z,0.78
2023-01-10T22:24:57.235Z,0.78
2023-01-10T22:25:57.245Z,0.78
2023-01-10T22:26:57.249Z,0.79
2023-01-10T22:27:57.270Z,0.77
2023-01-10T22:28:57.277Z,0.76
2023-01-10T22:29:57.295Z,0.77
2023-01-10T23:27:58.005Z,0.75
2023-01-10T23:28:58.009Z,0.74
2023-01-10T23:29:58.021Z,0.76
2023-01-10T23:30:58.045Z,0.74
2023-01-10T23:31:58.109Z,0.75
2023-01-10T23:32:58.076Z,0.74
2023-01-10T23:33:58.076Z,0.74
2023-01-10T23:34:58.101Z,0.74
2023-01-10T23:35:58.132Z,0.73
2023-01-10T23:36:58.111Z,0.73
2023-01-10T23:37:58.139Z,0.74
2023-01-10T23:38:58.153Z,0.74
2023-01-10T23:39:58.189Z,0.75
2023-01-10T23:40:58.178Z,0.72
2023-01-10T23:41:58.173Z,0.74
2023-01-10T23:42:58.202Z,0.74
2023-01-10T23:43:58.218Z,0.73
2023-01-10T23:44:58.223Z,0.72
2023-01-10T23:45:58.251Z,0.73
2023-01-10T23:46:58.242Z,0.74
2023-01-10T23:47:58.260Z,0.73
2023-01-10T23:48:58.297Z,0.73
2023-01-10T23:49:58.295Z,0.74
2023-01-10T23:50:58.312Z,0.74
2023-01-10T23:51:58.313Z,0.75
2023-01-10T23:52:58.342Z,0.75
2023-01-10T23:53:58.358Z,0.74
2023-01-10T23:54:58.387Z,0.75
2023-01-10T23:55:58.395Z,0.72
2023-01-10T23:56:58.368Z,0.73
2023-01-10T23:57:58.385Z,0.73
2023-01-10T23:58:58.425Z,0.74
2023-01-10T23:59:58.413Z,0.74
